sensor_id;sensor_type;location;lat;lon;timestamp;P1;durP1;ratioP1;P2;durP2;ratioP2
8556;SDS011;4316;53.840;10.762;2023-04-24T00:01:39;2.13;;;2.03;;
8556;SDS011;4316;53.840;10.762;2023-04-24T00:04:05;3.57;;;2.43;;
8556;SDS011;4316;53.840;10.762;2023-04-24T00:06:32;2.70;;;2.50;;
8556;SDS011;4316;53.840;10.762;2023-04-24T00:09:01;3.70;;;2.47;;
8556;SDS011;4316;53.840;10.762;2023-04-24T00:11:27;2.50;;;2.33;;
8556;SDS011;4316;53.840;10.762;2023-04-24T00:13:53;3.73;;;2.60;;
8556;SDS011;4316;53.840;10.762;2023-04-24T00:16:18;2.40;;;2.27;;
8556;SDS011;4316;53.840;10.762;2023-04-24T00:18:44;3.17;;;2.33;;
8556;SDS011;4316;53.840;10.762;2023-04-24T00:21:10;2.93;;;2.40;;
8556;SDS011;4316;53.840;10.762;2023-04-24T00:23:35;3.60;;;2.40;;
8556;SDS011;4316;53.840;10.762;2023-04-24T00:26:01;4.00;;;2.47;;
8556;SDS011;4316;53.840;10.762;2023-04-24T00:28:27;2.10;;;2.00;;
8556;SDS011;4316;53.840;10.762;2023-04-24T00:30:52;4.93;;;2.17;;
8556;SDS011;4316;53.840;10.762;2023-04-24T00:33:19;2.30;;;2.10;;
8556;SDS011;4316;53.840;10.762;2023-04-24T00:35:45;2.07;;;1.97;;
8556;SDS011;4316;53.840;10.762;2023-04-24T00:38:10;2.30;;;2.20;;
8556;SDS011;4316;53.840;10.762;2023-04-24T00:40:36;3.10;;;1.90;;
8556;SDS011;4316;53.840;10.762;2023-04-24T00:43:02;2.33;;;2.20;;
8556;SDS011;4316;53.840;10.762;2023-04-24T00:45:28;2.70;;;2.50;;
8556;SDS011;4316;53.840;10.762;2023-04-24T00:47:56;2.53;;;2.37;;
8556;SDS011;4316;53.840;10.762;2023-04-24T00:50:23;5.17;;;2.47;;
8556;SDS011;4316;53.840;10.762;2023-04-24T00:52:49;2.30;;;2.10;;
8556;SDS011;4316;53.840;10.762;2023-04-24T00:55:15;2.47;;;2.37;;
8556;SDS011;4316;53.840;10.762;2023-04-24T00:57:42;5.87;;;2.50;;
8556;SDS011;4316;53.840;10.762;2023-04-24T01:00:10;2.70;;;2.30;;
8556;SDS011;4316;53.840;10.762;2023-04-24T01:02:40;2.67;;;2.03;;
8556;SDS011;4316;53.840;10.762;2023-04-24T01:05:11;2.50;;;2.30;;
8556;SDS011;4316;53.840;10.762;2023-04-24T01:07:43;4.17;;;2.30;;
8556;SDS011;4316;53.840;10.762;2023-04-24T01:10:13;2.70;;;2.50;;
8556;SDS011;4316;53.840;10.762;2023-04-24T01:12:39;2.63;;;2.40;;
8556;SDS011;4316;53.840;10.762;2023-04-24T01:15:05;2.90;;;2.70;;
8556;SDS011;4316;53.840;10.762;2023-04-24T01:17:31;4.30;;;2.70;;
8556;SDS011;4316;53.840;10.762;2023-04-24T01:19:58;5.80;;;2.77;;
8556;SDS011;4316;53.840;10.762;2023-04-24T01:22:25;4.27;;;2.90;;
8556;SDS011;4316;53.840;10.762;2023-04-24T01:24:51;2.70;;;2.50;;
8556;SDS011;4316;53.840;10.762;2023-04-24T01:27:18;4.73;;;2.70;;
8556;SDS011;4316;53.840;10.762;2023-04-24T01:29:44;2.70;;;2.50;;
8556;SDS011;4316;53.840;10.762;2023-04-24T01:32:10;3.17;;;2.60;;
8556;SDS011;4316;53.840;10.762;2023-04-24T01:34:36;2.80;;;2.60;;
8556;SDS011;4316;53.840;10.762;2023-04-24T01:37:02;2.80;;;2.60;;
8556;SDS011;4316;53.840;10.762;2023-04-24T01:39:28;3.63;;;3.30;;
8556;SDS011;4316;53.840;10.762;2023-04-24T01:41:54;4.03;;;3.03;;
8556;SDS011;4316;53.840;10.762;2023-04-24T01:44:20;3.67;;;3.13;;
8556;SDS011;4316;53.840;10.762;2023-04-24T01:46:47;4.20;;;3.30;;
8556;SDS011;4316;53.840;10.762;2023-04-24T01:49:12;3.10;;;2.80;;
8556;SDS011;4316;53.840;10.762;2023-04-24T01:51:38;6.00;;;3.20;;
8556;SDS011;4316;53.840;10.762;2023-04-24T01:54:03;3.37;;;2.90;;
8556;SDS011;4316;53.840;10.762;2023-04-24T01:56:30;3.57;;;3.23;;
8556;SDS011;4316;53.840;10.762;2023-04-24T01:58:58;5.97;;;2.77;;
8556;SDS011;4316;53.840;10.762;2023-04-24T02:01:25;4.30;;;2.90;;
8556;SDS011;4316;53.840;10.762;2023-04-24T02:03:51;6.00;;;3.33;;
8556;SDS011;4316;53.840;10.762;2023-04-24T02:06:16;4.13;;;3.20;;
8556;SDS011;4316;53.840;10.762;2023-04-24T02:08:42;5.13;;;3.00;;
8556;SDS011;4316;53.840;10.762;2023-04-24T02:11:10;4.07;;;3.27;;
8556;SDS011;4316;53.840;10.762;2023-04-24T02:13:36;7.07;;;3.37;;
8556;SDS011;4316;53.840;10.762;2023-04-24T02:16:02;3.13;;;2.93;;
8556;SDS011;4316;53.840;10.762;2023-04-24T02:18:28;4.07;;;3.03;;
8556;SDS011;4316;53.840;10.762;2023-04-24T02:20:56;3.27;;;2.83;;
8556;SDS011;4316;53.840;10.762;2023-04-24T02:23:21;3.40;;;3.10;;
8556;SDS011;4316;53.840;10.762;2023-04-24T02:25:47;4.13;;;3.30;;
8556;SDS011;4316;53.840;10.762;2023-04-24T02:28:12;3.53;;;2.90;;
8556;SDS011;4316;53.840;10.762;2023-04-24T02:30:38;5.93;;;3.43;;
8556;SDS011;4316;53.840;10.762;2023-04-24T02:33:03;5.73;;;3.50;;
8556;SDS011;4316;53.840;10.762;2023-04-24T02:35:29;4.67;;;3.30;;
8556;SDS011;4316;53.840;10.762;2023-04-24T02:37:55;4.07;;;3.70;;
8556;SDS011;4316;53.840;10.762;2023-04-24T02:40:20;4.77;;;3.17;;
8556;SDS011;4316;53.840;10.762;2023-04-24T02:42:46;3.63;;;2.83;;
8556;SDS011;4316;53.840;10.762;2023-04-24T02:45:11;3.40;;;2.90;;
8556;SDS011;4316;53.840;10.762;2023-04-24T02:47:37;5.63;;;3.20;;
8556;SDS011;4316;53.840;10.762;2023-04-24T02:50:03;4.83;;;3.00;;
8556;SDS011;4316;53.840;10.762;2023-04-24T02:52:29;4.80;;;2.97;;
8556;SDS011;4316;53.840;10.762;2023-04-24T02:54:55;8.80;;;2.97;;
8556;SDS011;4316;53.840;10.762;2023-04-24T02:57:21;4.90;;;3.37;;
8556;SDS011;4316;53.840;10.762;2023-04-24T02:59:46;3.40;;;3.20;;
8556;SDS011;4316;53.840;10.762;2023-04-24T03:02:12;3.10;;;2.80;;
8556;SDS011;4316;53.840;10.762;2023-04-24T03:04:37;3.33;;;3.13;;
8556;SDS011;4316;53.840;10.762;2023-04-24T03:07:04;3.13;;;2.87;;
8556;SDS011;4316;53.840;10.762;2023-04-24T03:09:30;3.13;;;2.73;;
8556;SDS011;4316;53.840;10.762;2023-04-24T03:11:56;4.53;;;2.93;;
8556;SDS011;4316;53.840;10.762;2023-04-24T03:14:23;4.17;;;3.57;;
8556;SDS011;4316;53.840;10.762;2023-04-24T03:16:49;6.23;;;2.83;;
8556;SDS011;4316;53.840;10.762;2023-04-24T03:19:15;5.00;;;3.13;;
8556;SDS011;4316;53.840;10.762;2023-04-24T03:21:52;3.43;;;3.13;;
8556;SDS011;4316;53.840;10.762;2023-04-24T03:24:18;3.07;;;2.77;;
8556;SDS011;4316;53.840;10.762;2023-04-24T03:26:43;4.90;;;3.00;;
8556;SDS011;4316;53.840;10.762;2023-04-24T03:29:28;2.70;;;2.50;;
8556;SDS011;4316;53.840;10.762;2023-04-24T03:31:53;6.70;;;2.87;;
8556;SDS011;4316;53.840;10.762;2023-04-24T03:34:19;3.50;;;3.20;;
8556;SDS011;4316;53.840;10.762;2023-04-24T03:36:45;2.80;;;2.53;;
8556;SDS011;4316;53.840;10.762;2023-04-24T03:39:13;2.80;;;2.60;;
8556;SDS011;4316;53.840;10.762;2023-04-24T03:41:44;2.80;;;2.60;;
8556;SDS011;4316;53.840;10.762;2023-04-24T03:44:17;2.80;;;2.57;;
8556;SDS011;4316;53.840;10.762;2023-04-24T03:46:43;2.43;;;2.33;;
8556;SDS011;4316;53.840;10.762;2023-04-24T03:49:09;2.63;;;2.43;;
8556;SDS011;4316;53.840;10.762;2023-04-24T03:51:38;2.90;;;2.70;;
8556;SDS011;4316;53.840;10.762;2023-04-24T03:54:20;2.40;;;2.30;;
8556;SDS011;4316;53.840;10.762;2023-04-24T03:56:45;2.97;;;2.40;;
8556;SDS011;4316;53.840;10.762;2023-04-24T03:59:11;2.20;;;2.00;;
8556;SDS011;4316;53.840;10.762;2023-04-24T04:01:39;2.30;;;2.20;;
8556;SDS011;4316;53.840;10.762;2023-04-24T04:04:11;2.20;;;2.00;;
8556;SDS011;4316;53.840;10.762;2023-04-24T04:06:38;2.03;;;1.93;;
8556;SDS011;4316;53.840;10.762;2023-04-24T04:09:04;2.40;;;1.90;;
8556;SDS011;4316;53.840;10.762;2023-04-24T04:11:30;3.13;;;2.13;;
8556;SDS011;4316;53.840;10.762;2023-04-24T04:13:55;2.07;;;1.97;;
8556;SDS011;4316;53.840;10.762;2023-04-24T04:16:22;2.57;;;2.07;;
8556;SDS011;4316;53.840;10.762;2023-04-24T04:18:50;1.60;;;1.60;;
8556;SDS011;4316;53.840;10.762;2023-04-24T04:21:16;2.20;;;1.97;;
8556;SDS011;4316;53.840;10.762;2023-04-24T04:23:42;2.50;;;2.07;;
8556;SDS011;4316;53.840;10.762;2023-04-24T04:26:21;1.67;;;1.63;;
8556;SDS011;4316;53.840;10.762;2023-04-24T04:29:01;1.70;;;1.60;;
8556;SDS011;4316;53.840;10.762;2023-04-24T04:31:29;2.20;;;2.10;;
8556;SDS011;4316;53.840;10.762;2023-04-24T04:33:57;2.20;;;1.90;;
8556;SDS011;4316;53.840;10.762;2023-04-24T04:36:24;2.20;;;1.90;;
8556;SDS011;4316;53.840;10.762;2023-04-24T04:38:55;1.90;;;1.80;;
8556;SDS011;4316;53.840;10.762;2023-04-24T04:41:40;1.97;;;1.73;;
8556;SDS011;4316;53.840;10.762;2023-04-24T04:44:07;5.90;;;1.90;;
8556;SDS011;4316;53.840;10.762;2023-04-24T04:46:34;2.80;;;2.30;;
8556;SDS011;4316;53.840;10.762;2023-04-24T04:49:09;1.80;;;1.67;;
8556;SDS011;4316;53.840;10.762;2023-04-24T04:51:36;2.20;;;2.10;;
8556;SDS011;4316;53.840;10.762;2023-04-24T04:54:01;5.80;;;2.27;;
8556;SDS011;4316;53.840;10.762;2023-04-24T04:56:28;3.37;;;2.40;;
8556;SDS011;4316;53.840;10.762;2023-04-24T04:58:54;2.67;;;1.90;;
8556;SDS011;4316;53.840;10.762;2023-04-24T05:01:20;2.57;;;1.90;;
8556;SDS011;4316;53.840;10.762;2023-04-24T05:03:48;2.03;;;1.90;;
8556;SDS011;4316;53.840;10.762;2023-04-24T05:06:15;1.93;;;1.70;;
8556;SDS011;4316;53.840;10.762;2023-04-24T05:08:42;1.97;;;1.80;;
8556;SDS011;4316;53.840;10.762;2023-04-24T05:11:15;2.03;;;1.90;;
8556;SDS011;4316;53.840;10.762;2023-04-24T05:13:40;1.73;;;1.63;;
8556;SDS011;4316;53.840;10.762;2023-04-24T05:16:17;2.03;;;1.93;;
8556;SDS011;4316;53.840;10.762;2023-04-24T05:18:43;2.90;;;1.77;;
8556;SDS011;4316;53.840;10.762;2023-04-24T05:21:12;1.80;;;1.70;;
8556;SDS011;4316;53.840;10.762;2023-04-24T05:23:40;1.60;;;1.50;;
8556;SDS011;4316;53.840;10.762;2023-04-24T05:26:06;6.60;;;1.83;;
8556;SDS011;4316;53.840;10.762;2023-04-24T05:28:31;1.67;;;1.57;;
8556;SDS011;4316;53.840;10.762;2023-04-24T05:31:04;1.53;;;1.43;;
8556;SDS011;4316;53.840;10.762;2023-04-24T05:33:31;1.53;;;1.40;;
8556;SDS011;4316;53.840;10.762;2023-04-24T05:35:57;1.20;;;1.20;;
8556;SDS011;4316;53.840;10.762;2023-04-24T05:38:23;2.87;;;1.47;;
8556;SDS011;4316;53.840;10.762;2023-04-24T05:40:49;1.60;;;1.50;;
8556;SDS011;4316;53.840;10.762;2023-04-24T05:43:14;2.50;;;1.23;;
8556;SDS011;4316;53.840;10.762;2023-04-24T05:45:40;1.27;;;1.10;;
8556;SDS011;4316;53.840;10.762;2023-04-24T05:48:06;1.43;;;1.33;;
8556;SDS011;4316;53.840;10.762;2023-04-24T05:50:31;2.37;;;1.30;;
8556;SDS011;4316;53.840;10.762;2023-04-24T05:52:57;1.10;;;0.97;;
8556;SDS011;4316;53.840;10.762;2023-04-24T05:55:27;1.27;;;1.13;;
8556;SDS011;4316;53.840;10.762;2023-04-24T05:57:53;1.20;;;1.10;;
8556;SDS011;4316;53.840;10.762;2023-04-24T06:00:19;2.90;;;1.23;;
8556;SDS011;4316;53.840;10.762;2023-04-24T06:02:52;3.37;;;1.17;;
8556;SDS011;4316;53.840;10.762;2023-04-24T06:05:19;2.63;;;1.30;;
8556;SDS011;4316;53.840;10.762;2023-04-24T06:07:45;1.23;;;1.13;;
8556;SDS011;4316;53.840;10.762;2023-04-24T06:10:11;6.63;;;1.40;;
8556;SDS011;4316;53.840;10.762;2023-04-24T06:12:41;1.30;;;1.20;;
8556;SDS011;4316;53.840;10.762;2023-04-24T06:15:13;1.70;;;1.20;;
8556;SDS011;4316;53.840;10.762;2023-04-24T06:18:01;2.97;;;1.30;;
8556;SDS011;4316;53.840;10.762;2023-04-24T06:20:27;2.20;;;1.30;;
8556;SDS011;4316;53.840;10.762;2023-04-24T06:22:53;2.30;;;1.00;;
8556;SDS011;4316;53.840;10.762;2023-04-24T06:25:19;1.03;;;1.03;;
8556;SDS011;4316;53.840;10.762;2023-04-24T06:27:44;0.80;;;0.80;;
8556;SDS011;4316;53.840;10.762;2023-04-24T06:30:10;0.77;;;0.77;;
8556;SDS011;4316;53.840;10.762;2023-04-24T06:32:36;0.70;;;0.70;;
8556;SDS011;4316;53.840;10.762;2023-04-24T06:35:01;1.13;;;0.90;;
8556;SDS011;4316;53.840;10.762;2023-04-24T06:37:27;0.60;;;0.60;;
8556;SDS011;4316;53.840;10.762;2023-04-24T06:39:53;0.70;;;0.70;;
8556;SDS011;4316;53.840;10.762;2023-04-24T06:42:19;0.87;;;0.87;;
8556;SDS011;4316;53.840;10.762;2023-04-24T06:44:49;1.17;;;0.87;;
8556;SDS011;4316;53.840;10.762;2023-04-24T06:47:15;0.57;;;0.57;;
8556;SDS011;4316;53.840;10.762;2023-04-24T06:49:41;1.87;;;0.80;;
8556;SDS011;4316;53.840;10.762;2023-04-24T06:52:07;1.23;;;1.07;;
8556;SDS011;4316;53.840;10.762;2023-04-24T06:54:33;1.07;;;1.00;;
8556;SDS011;4316;53.840;10.762;2023-04-24T06:56:59;1.97;;;0.90;;
8556;SDS011;4316;53.840;10.762;2023-04-24T06:59:28;0.80;;;0.80;;
8556;SDS011;4316;53.840;10.762;2023-04-24T07:01:54;2.33;;;1.10;;
8556;SDS011;4316;53.840;10.762;2023-04-24T07:04:20;4.57;;;0.90;;
8556;SDS011;4316;53.840;10.762;2023-04-24T07:06:46;1.30;;;0.90;;
8556;SDS011;4316;53.840;10.762;2023-04-24T07:09:12;1.07;;;0.90;;
8556;SDS011;4316;53.840;10.762;2023-04-24T07:11:44;1.90;;;1.80;;
8556;SDS011;4316;53.840;10.762;2023-04-24T07:14:10;1.50;;;1.17;;
8556;SDS011;4316;53.840;10.762;2023-04-24T07:16:36;1.03;;;1.03;;
8556;SDS011;4316;53.840;10.762;2023-04-24T07:19:01;1.63;;;1.07;;
8556;SDS011;4316;53.840;10.762;2023-04-24T07:21:27;0.80;;;0.80;;
8556;SDS011;4316;53.840;10.762;2023-04-24T07:23:53;1.27;;;1.00;;
8556;SDS011;4316;53.840;10.762;2023-04-24T07:26:19;0.80;;;0.80;;
8556;SDS011;4316;53.840;10.762;2023-04-24T07:28:45;2.17;;;1.07;;
8556;SDS011;4316;53.840;10.762;2023-04-24T07:31:11;1.30;;;1.20;;
8556;SDS011;4316;53.840;10.762;2023-04-24T07:33:37;1.97;;;1.23;;
8556;SDS011;4316;53.840;10.762;2023-04-24T07:36:03;3.00;;;0.80;;
8556;SDS011;4316;53.840;10.762;2023-04-24T07:38:29;1.07;;;1.07;;
8556;SDS011;4316;53.840;10.762;2023-04-24T07:40:55;0.93;;;0.93;;
8556;SDS011;4316;53.840;10.762;2023-04-24T07:43:20;1.50;;;0.90;;
8556;SDS011;4316;53.840;10.762;2023-04-24T07:45:47;1.00;;;1.00;;
8556;SDS011;4316;53.840;10.762;2023-04-24T07:48:12;0.87;;;0.87;;
8556;SDS011;4316;53.840;10.762;2023-04-24T07:50:41;0.90;;;0.90;;
8556;SDS011;4316;53.840;10.762;2023-04-24T07:53:07;1.30;;;1.20;;
8556;SDS011;4316;53.840;10.762;2023-04-24T07:55:32;0.90;;;0.90;;
8556;SDS011;4316;53.840;10.762;2023-04-24T07:57:58;1.30;;;0.93;;
8556;SDS011;4316;53.840;10.762;2023-04-24T08:00:23;1.00;;;1.00;;
8556;SDS011;4316;53.840;10.762;2023-04-24T08:02:49;0.73;;;0.70;;
8556;SDS011;4316;53.840;10.762;2023-04-24T08:05:15;0.90;;;0.87;;
8556;SDS011;4316;53.840;10.762;2023-04-24T08:07:40;0.90;;;0.90;;
8556;SDS011;4316;53.840;10.762;2023-04-24T08:10:07;0.87;;;0.87;;
8556;SDS011;4316;53.840;10.762;2023-04-24T08:12:35;1.23;;;1.13;;
8556;SDS011;4316;53.840;10.762;2023-04-24T08:15:01;1.00;;;0.90;;
8556;SDS011;4316;53.840;10.762;2023-04-24T08:17:27;3.63;;;1.23;;
8556;SDS011;4316;53.840;10.762;2023-04-24T08:19:52;1.30;;;1.30;;
8556;SDS011;4316;53.840;10.762;2023-04-24T08:22:26;2.10;;;1.40;;
8556;SDS011;4316;53.840;10.762;2023-04-24T08:24:54;1.70;;;1.23;;
8556;SDS011;4316;53.840;10.762;2023-04-24T08:27:21;1.10;;;1.10;;
8556;SDS011;4316;53.840;10.762;2023-04-24T08:29:47;2.43;;;0.93;;
8556;SDS011;4316;53.840;10.762;2023-04-24T08:32:14;2.00;;;1.07;;
8556;SDS011;4316;53.840;10.762;2023-04-24T08:34:40;0.77;;;0.77;;
8556;SDS011;4316;53.840;10.762;2023-04-24T08:37:05;2.43;;;1.13;;
8556;SDS011;4316;53.840;10.762;2023-04-24T08:39:31;1.33;;;0.90;;
8556;SDS011;4316;53.840;10.762;2023-04-24T08:41:56;1.20;;;1.20;;
8556;SDS011;4316;53.840;10.762;2023-04-24T08:44:30;1.10;;;1.00;;
8556;SDS011;4316;53.840;10.762;2023-04-24T08:46:57;1.97;;;0.90;;
8556;SDS011;4316;53.840;10.762;2023-04-24T08:49:22;0.83;;;0.83;;
8556;SDS011;4316;53.840;10.762;2023-04-24T08:51:50;1.37;;;1.00;;
8556;SDS011;4316;53.840;10.762;2023-04-24T08:54:17;5.77;;;1.67;;
8556;SDS011;4316;53.840;10.762;2023-04-24T08:56:44;1.93;;;1.47;;
8556;SDS011;4316;53.840;10.762;2023-04-24T08:59:10;2.57;;;2.37;;
8556;SDS011;4316;53.840;10.762;2023-04-24T09:01:37;2.08;;;1.40;;
8556;SDS011;4316;53.840;10.762;2023-04-24T09:04:04;1.57;;;1.40;;
8556;SDS011;4316;53.840;10.762;2023-04-24T09:06:32;1.23;;;1.20;;
8556;SDS011;4316;53.840;10.762;2023-04-24T09:09:00;6.80;;;1.27;;
8556;SDS011;4316;53.840;10.762;2023-04-24T09:11:26;2.80;;;1.00;;
8556;SDS011;4316;53.840;10.762;2023-04-24T09:13:53;0.90;;;0.90;;
8556;SDS011;4316;53.840;10.762;2023-04-24T09:16:19;1.05;;;0.98;;
8556;SDS011;4316;53.840;10.762;2023-04-24T09:18:45;0.90;;;0.90;;
8556;SDS011;4316;53.840;10.762;2023-04-24T09:21:11;1.17;;;1.10;;
8556;SDS011;4316;53.840;10.762;2023-04-24T09:23:36;0.73;;;0.73;;
8556;SDS011;4316;53.840;10.762;2023-04-24T09:26:03;0.80;;;0.73;;
8556;SDS011;4316;53.840;10.762;2023-04-24T09:28:31;1.50;;;0.93;;
8556;SDS011;4316;53.840;10.762;2023-04-24T09:31:07;7.20;;;0.87;;
8556;SDS011;4316;53.840;10.762;2023-04-24T09:33:40;0.90;;;0.90;;
8556;SDS011;4316;53.840;10.762;2023-04-24T09:36:52;0.90;;;0.90;;
8556;SDS011;4316;53.840;10.762;2023-04-24T09:39:17;1.00;;;1.00;;
8556;SDS011;4316;53.840;10.762;2023-04-24T09:42:03;0.95;;;0.90;;
8556;SDS011;4316;53.840;10.762;2023-04-24T09:44:29;0.90;;;0.90;;
8556;SDS011;4316;53.840;10.762;2023-04-24T09:46:55;0.90;;;0.90;;
8556;SDS011;4316;53.840;10.762;2023-04-24T09:49:25;2.15;;;0.90;;
8556;SDS011;4316;53.840;10.762;2023-04-24T09:51:51;1.13;;;1.08;;
8556;SDS011;4316;53.840;10.762;2023-04-24T09:54:18;1.70;;;1.00;;
8556;SDS011;4316;53.840;10.762;2023-04-24T09:56:46;1.40;;;1.30;;
8556;SDS011;4316;53.840;10.762;2023-04-24T09:59:14;4.23;;;1.03;;
8556;SDS011;4316;53.840;10.762;2023-04-24T10:01:41;1.97;;;1.57;;
8556;SDS011;4316;53.840;10.762;2023-04-24T10:04:19;1.23;;;1.13;;
8556;SDS011;4316;53.840;10.762;2023-04-24T10:06:48;1.40;;;1.30;;
8556;SDS011;4316;53.840;10.762;2023-04-24T10:09:15;1.50;;;1.40;;
8556;SDS011;4316;53.840;10.762;2023-04-24T10:11:42;1.60;;;1.50;;
8556;SDS011;4316;53.840;10.762;2023-04-24T10:14:11;1.67;;;1.57;;
8556;SDS011;4316;53.840;10.762;2023-04-24T10:16:42;1.20;;;1.20;;
8556;SDS011;4316;53.840;10.762;2023-04-24T10:19:08;2.90;;;1.60;;
8556;SDS011;4316;53.840;10.762;2023-04-24T10:21:35;1.57;;;1.47;;
8556;SDS011;4316;53.840;10.762;2023-04-24T10:24:07;2.67;;;1.97;;
8556;SDS011;4316;53.840;10.762;2023-04-24T10:26:36;1.83;;;1.70;;
8556;SDS011;4316;53.840;10.762;2023-04-24T10:29:02;1.93;;;1.83;;
8556;SDS011;4316;53.840;10.762;2023-04-24T10:31:34;1.83;;;1.73;;
8556;SDS011;4316;53.840;10.762;2023-04-24T10:34:01;2.20;;;2.10;;
8556;SDS011;4316;53.840;10.762;2023-04-24T10:36:28;2.03;;;1.93;;
8556;SDS011;4316;53.840;10.762;2023-04-24T10:38:57;3.10;;;2.00;;
8556;SDS011;4316;53.840;10.762;2023-04-24T10:41:25;2.57;;;2.37;;
8556;SDS011;4316;53.840;10.762;2023-04-24T10:46:37;1.90;;;1.80;;
8556;SDS011;4316;53.840;10.762;2023-04-24T10:49:04;1.80;;;1.70;;
8556;SDS011;4316;53.840;10.762;2023-04-24T10:51:52;8.37;;;1.73;;
8556;SDS011;4316;53.840;10.762;2023-04-24T10:54:22;5.77;;;2.43;;
8556;SDS011;4316;53.840;10.762;2023-04-24T10:56:53;1.97;;;1.87;;
8556;SDS011;4316;53.840;10.762;2023-04-24T10:59:38;1.77;;;1.67;;
8556;SDS011;4316;53.840;10.762;2023-04-24T11:02:04;3.60;;;1.67;;
8556;SDS011;4316;53.840;10.762;2023-04-24T11:04:33;1.60;;;1.60;;
8556;SDS011;4316;53.840;10.762;2023-04-24T11:07:00;1.40;;;1.30;;
8556;SDS011;4316;53.840;10.762;2023-04-24T11:09:27;1.87;;;1.77;;
8556;SDS011;4316;53.840;10.762;2023-04-24T11:12:04;1.87;;;1.63;;
8556;SDS011;4316;53.840;10.762;2023-04-24T11:22:32;2.30;;;1.90;;
8556;SDS011;4316;53.840;10.762;2023-04-24T11:25:00;3.40;;;2.17;;
8556;SDS011;4316;53.840;10.762;2023-04-24T11:27:30;3.50;;;1.93;;
8556;SDS011;4316;53.840;10.762;2023-04-24T11:32:28;2.10;;;1.67;;
8556;SDS011;4316;53.840;10.762;2023-04-24T11:34:56;2.97;;;2.17;;
8556;SDS011;4316;53.840;10.762;2023-04-24T11:37:27;1.55;;;1.52;;
8556;SDS011;4316;53.840;10.762;2023-04-24T11:39:55;4.80;;;1.80;;
8556;SDS011;4316;53.840;10.762;2023-04-24T11:42:23;1.77;;;1.67;;
8556;SDS011;4316;53.840;10.762;2023-04-24T11:44:51;1.90;;;1.80;;
8556;SDS011;4316;53.840;10.762;2023-04-24T11:47:17;1.75;;;1.73;;
8556;SDS011;4316;53.840;10.762;2023-04-24T11:49:43;1.97;;;1.83;;
8556;SDS011;4316;53.840;10.762;2023-04-24T11:52:08;3.00;;;2.13;;
8556;SDS011;4316;53.840;10.762;2023-04-24T11:54:35;2.90;;;2.65;;
8556;SDS011;4316;53.840;10.762;2023-04-24T11:57:03;1.95;;;1.85;;
8556;SDS011;4316;53.840;10.762;2023-04-24T11:59:34;4.47;;;2.15;;
8556;SDS011;4316;53.840;10.762;2023-04-24T12:02:00;2.67;;;2.47;;
8556;SDS011;4316;53.840;10.762;2023-04-24T12:04:26;4.77;;;2.83;;
8556;SDS011;4316;53.840;10.762;2023-04-24T12:07:01;9.45;;;2.95;;
8556;SDS011;4316;53.840;10.762;2023-04-24T12:09:27;2.67;;;2.47;;
8556;SDS011;4316;53.840;10.762;2023-04-24T12:11:54;2.75;;;2.30;;
8556;SDS011;4316;53.840;10.762;2023-04-24T12:14:23;2.90;;;2.70;;
8556;SDS011;4316;53.840;10.762;2023-04-24T12:16:52;3.72;;;2.63;;
8556;SDS011;4316;53.840;10.762;2023-04-24T12:19:18;6.18;;;3.67;;
8556;SDS011;4316;53.840;10.762;2023-04-24T12:21:58;2.70;;;2.50;;
8556;SDS011;4316;53.840;10.762;2023-04-24T12:24:25;3.20;;;2.78;;
8556;SDS011;4316;53.840;10.762;2023-04-24T12:26:50;2.88;;;2.67;;
8556;SDS011;4316;53.840;10.762;2023-04-24T12:29:19;3.95;;;3.30;;
8556;SDS011;4316;53.840;10.762;2023-04-24T12:31:45;4.72;;;3.00;;
8556;SDS011;4316;53.840;10.762;2023-04-24T12:34:18;4.27;;;2.90;;
8556;SDS011;4316;53.840;10.762;2023-04-24T12:36:45;5.25;;;3.83;;
8556;SDS011;4316;53.840;10.762;2023-04-24T12:39:15;4.17;;;3.40;;
8556;SDS011;4316;53.840;10.762;2023-04-24T12:42:25;4.23;;;3.80;;
8556;SDS011;4316;53.840;10.762;2023-04-24T12:44:36;6.80;;;3.70;;
8556;SDS011;4316;53.840;10.762;2023-04-24T12:47:02;4.47;;;3.50;;
8556;SDS011;4316;53.840;10.762;2023-04-24T12:49:31;4.20;;;3.33;;
8556;SDS011;4316;53.840;10.762;2023-04-24T12:51:57;4.60;;;3.80;;
8556;SDS011;4316;53.840;10.762;2023-04-24T12:54:23;3.33;;;3.03;;
8556;SDS011;4316;53.840;10.762;2023-04-24T12:56:48;5.73;;;3.67;;
8556;SDS011;4316;53.840;10.762;2023-04-24T12:59:14;3.97;;;3.67;;
8556;SDS011;4316;53.840;10.762;2023-04-24T13:01:40;5.23;;;3.63;;
8556;SDS011;4316;53.840;10.762;2023-04-24T13:04:06;3.90;;;3.17;;
8556;SDS011;4316;53.840;10.762;2023-04-24T13:06:32;3.60;;;3.30;;
8556;SDS011;4316;53.840;10.762;2023-04-24T13:08:57;6.87;;;2.87;;
8556;SDS011;4316;53.840;10.762;2023-04-24T13:11:23;3.00;;;2.70;;
8556;SDS011;4316;53.840;10.762;2023-04-24T13:13:49;3.67;;;3.07;;
8556;SDS011;4316;53.840;10.762;2023-04-24T13:16:15;3.50;;;3.20;;
8556;SDS011;4316;53.840;10.762;2023-04-24T13:18:41;4.33;;;3.57;;
8556;SDS011;4316;53.840;10.762;2023-04-24T13:21:06;3.87;;;3.47;;
8556;SDS011;4316;53.840;10.762;2023-04-24T13:23:32;3.87;;;3.00;;
8556;SDS011;4316;53.840;10.762;2023-04-24T13:25:58;4.10;;;3.33;;
8556;SDS011;4316;53.840;10.762;2023-04-24T13:28:26;4.27;;;2.80;;
8556;SDS011;4316;53.840;10.762;2023-04-24T13:30:52;4.30;;;3.27;;
8556;SDS011;4316;53.840;10.762;2023-04-24T13:33:18;4.57;;;2.77;;
8556;SDS011;4316;53.840;10.762;2023-04-24T13:35:43;3.13;;;2.73;;
8556;SDS011;4316;53.840;10.762;2023-04-24T13:38:10;4.93;;;3.20;;
8556;SDS011;4316;53.840;10.762;2023-04-24T13:40:36;3.63;;;2.73;;
8556;SDS011;4316;53.840;10.762;2023-04-24T13:43:02;3.33;;;3.10;;
8556;SDS011;4316;53.840;10.762;2023-04-24T13:45:27;3.53;;;3.07;;
8556;SDS011;4316;53.840;10.762;2023-04-24T13:47:53;7.53;;;2.70;;
8556;SDS011;4316;53.840;10.762;2023-04-24T13:50:19;4.77;;;3.60;;
8556;SDS011;4316;53.840;10.762;2023-04-24T13:52:45;3.20;;;2.90;;
8556;SDS011;4316;53.840;10.762;2023-04-24T13:55:11;6.07;;;2.73;;
8556;SDS011;4316;53.840;10.762;2023-04-24T13:57:36;3.17;;;2.47;;
8556;SDS011;4316;53.840;10.762;2023-04-24T14:00:02;3.60;;;2.50;;
8556;SDS011;4316;53.840;10.762;2023-04-24T14:02:32;2.40;;;2.20;;
8556;SDS011;4316;53.840;10.762;2023-04-24T14:04:57;2.87;;;2.67;;
8556;SDS011;4316;53.840;10.762;2023-04-24T14:07:23;2.97;;;2.30;;
8556;SDS011;4316;53.840;10.762;2023-04-24T14:09:48;3.83;;;2.50;;
8556;SDS011;4316;53.840;10.762;2023-04-24T14:12:14;7.97;;;2.67;;
8556;SDS011;4316;53.840;10.762;2023-04-24T14:14:43;5.27;;;2.77;;
8556;SDS011;4316;53.840;10.762;2023-04-24T14:17:09;2.20;;;2.10;;
8556;SDS011;4316;53.840;10.762;2023-04-24T14:19:35;2.47;;;2.27;;
8556;SDS011;4316;53.840;10.762;2023-04-24T14:22:00;2.70;;;2.40;;
8556;SDS011;4316;53.840;10.762;2023-04-24T14:24:26;4.37;;;2.63;;
8556;SDS011;4316;53.840;10.762;2023-04-24T14:26:51;2.53;;;2.33;;
8556;SDS011;4316;53.840;10.762;2023-04-24T14:29:17;3.83;;;2.70;;
8556;SDS011;4316;53.840;10.762;2023-04-24T14:31:44;2.60;;;2.40;;
8556;SDS011;4316;53.840;10.762;2023-04-24T14:34:10;2.20;;;2.10;;
8556;SDS011;4316;53.840;10.762;2023-04-24T14:36:36;4.33;;;2.20;;
8556;SDS011;4316;53.840;10.762;2023-04-24T14:39:01;3.20;;;2.10;;
8556;SDS011;4316;53.840;10.762;2023-04-24T14:41:32;2.40;;;2.20;;
8556;SDS011;4316;53.840;10.762;2023-04-24T14:44:00;2.27;;;2.17;;
8556;SDS011;4316;53.840;10.762;2023-04-24T14:46:27;2.30;;;2.20;;
8556;SDS011;4316;53.840;10.762;2023-04-24T14:48:55;3.10;;;2.47;;
8556;SDS011;4316;53.840;10.762;2023-04-24T14:51:21;2.00;;;1.90;;
8556;SDS011;4316;53.840;10.762;2023-04-24T14:53:47;3.77;;;2.07;;
8556;SDS011;4316;53.840;10.762;2023-04-24T14:56:13;2.77;;;2.57;;
8556;SDS011;4316;53.840;10.762;2023-04-24T14:58:39;2.30;;;2.10;;
8556;SDS011;4316;53.840;10.762;2023-04-24T15:01:05;1.77;;;1.70;;
8556;SDS011;4316;53.840;10.762;2023-04-24T15:03:30;11.53;;;2.07;;
8556;SDS011;4316;53.840;10.762;2023-04-24T15:05:56;1.60;;;1.60;;
8556;SDS011;4316;53.840;10.762;2023-04-24T15:08:22;1.97;;;1.87;;
8556;SDS011;4316;53.840;10.762;2023-04-24T15:10:47;1.70;;;1.60;;
8556;SDS011;4316;53.840;10.762;2023-04-24T15:13:13;1.73;;;1.63;;
8556;SDS011;4316;53.840;10.762;2023-04-24T15:15:39;3.43;;;1.80;;